Enter the Airport ICAO Code

Search by Airport or City

Current Weather

KSFB | Orlando Sanford International Airport

Orlando, Florida, United States

Last Update 6 Minutes Ago

Clear Sky at Low Altitude

Temperature of 14 ºC

Light to Moderate Winds from NorthEast

Temperature

14 ºC

Dew Point Temperature

02 ºC Below Zero

Relative Humidity

33.11 %

Wind Direction

NorthEast (050º, Without Significant Variations)

Wind Velocity

13 km/h (07 kt)

Gusts

None

Visibility

Greater than 10 Miles

Sea Level Pressure

30.26 inHg (Inches of Mercury)

Layers of Clouds

None

METAR KSFB 022053Z 05007KT 10SM CLR 14/M02 A3026 RMK AO2 SLP248 T01391022 56008

Weather Forecast

KSFB | Orlando Sanford International Airport

Orlando, Florida, United States

Forecast valid for the next 21 Hours

From now on it is expected:

Partly Cloudy Sky

Light to Moderate Winds from North

In 18 hours it is expected the begining of:

Light to Moderate Winds from East

Maximum Temperature

No Data

Minimum Temperature

No Data

TAF KSFB 021748Z 0218/0318 01008KT P6SM SCT300 FM030200 36005KT P6SM FEW040 SCT250 FM031500 08008KT P6SM SCT040 SCT250